createdAt,value
2018-08-06T00:01:43.462Z,20.06
2018-08-06T00:06:39.087Z,19.79
2018-08-06T00:11:34.954Z,19.74
2018-08-06T00:16:30.745Z,19.69
2018-08-06T00:21:26.396Z,19.63
2018-08-06T00:26:22.354Z,19.41
2018-08-06T00:31:17.974Z,19.31
2018-08-06T00:36:13.987Z,19.30
2018-08-06T00:41:09.511Z,19.26
2018-08-06T00:46:06.473Z,19.26
2018-08-06T00:51:01.849Z,19.34
2018-08-06T00:55:58.695Z,19.22
2018-08-06T01:00:54.245Z,19.14
2018-08-06T01:05:50.098Z,18.98
2018-08-06T01:10:46.353Z,19.07
2018-08-06T01:15:42.170Z,18.95
2018-08-06T01:20:38.849Z,18.95
2018-08-06T01:25:34.334Z,18.93
2018-08-06T01:30:30.050Z,18.86
2018-08-06T01:35:25.987Z,19.11
2018-08-06T01:40:21.767Z,19.09
2018-08-06T01:45:18.088Z,19.22
2018-08-06T01:50:14.110Z,19.29
2018-08-06T01:55:09.856Z,19.22
2018-08-06T02:00:05.661Z,18.92
2018-08-06T02:05:02.014Z,18.56
2018-08-06T02:09:58.896Z,18.35
2018-08-06T02:14:54.315Z,18.62
2018-08-06T02:19:50.097Z,18.55
2018-08-06T02:24:47.039Z,18.71
2018-08-06T02:29:43.843Z,18.58
2018-08-06T02:34:39.212Z,18.49
2018-08-06T02:39:35.304Z,18.55
2018-08-06T02:44:31.270Z,18.35
2018-08-06T02:49:28.123Z,18.18
2018-08-06T02:54:23.763Z,18.19
2018-08-06T02:59:19.588Z,18.34
2018-08-06T03:04:15.444Z,18.15
2018-08-06T03:09:11.284Z,17.98
2018-08-06T03:14:06.968Z,18.07
2018-08-06T03:19:03.516Z,18.20
2018-08-06T03:23:59.148Z,17.97
2018-08-06T03:28:55.528Z,18.22
2018-08-06T03:33:51.226Z,18.04
2018-08-06T03:38:46.959Z,17.86
2018-08-06T03:43:43.661Z,17.85
2018-08-06T03:48:39.123Z,17.59
2018-08-06T03:53:34.670Z,17.60
2018-08-06T03:58:30.558Z,17.70
2018-08-06T04:03:26.373Z,17.64
2018-08-06T04:08:22.281Z,17.54
2018-08-06T04:13:19.006Z,17.60
2018-08-06T04:18:14.944Z,17.44
2018-08-06T04:23:10.795Z,17.57
2018-08-06T04:28:06.622Z,17.41
2018-08-06T04:33:03.410Z,17.57
2018-08-06T04:38:00.181Z,17.41
2018-08-06T04:42:55.865Z,17.48
2018-08-06T04:47:52.855Z,18.03
2018-08-06T04:52:49.501Z,18.11
2018-08-06T04:57:46.078Z,18.20
2018-08-06T05:02:42.964Z,18.43
2018-08-06T05:07:38.930Z,18.22
2018-08-06T05:12:34.638Z,18.20
2018-08-06T05:17:31.161Z,18.44
2018-08-06T05:22:27.258Z,18.63
2018-08-06T05:27:23.448Z,18.66
2018-08-06T05:32:22.593Z,18.88
2018-08-06T05:37:18.784Z,18.96
2018-08-06T05:42:14.695Z,19.34
2018-08-06T05:47:11.108Z,19.40
2018-08-06T05:52:07.171Z,19.88
2018-08-06T05:57:03.193Z,20.09
2018-08-06T06:01:59.270Z,20.19
2018-08-06T06:06:55.220Z,20.36
2018-08-06T06:11:51.116Z,20.22
2018-08-06T06:16:47.047Z,20.28
2018-08-06T06:21:42.999Z,20.13
2018-08-06T06:26:39.689Z,20.41
2018-08-06T06:31:35.396Z,20.59
2018-08-06T06:36:32.110Z,20.56
2018-08-06T06:41:27.817Z,21.00
2018-08-06T06:46:25.266Z,21.39
2018-08-06T06:51:20.638Z,21.61
2018-08-06T06:56:16.893Z,21.54
2018-08-06T07:01:13.877Z,21.48
2018-08-06T07:06:09.281Z,21.60
2018-08-06T07:11:05.014Z,21.55
2018-08-06T07:16:01.253Z,21.80
2018-08-06T07:20:57.261Z,22.06
2018-08-06T07:25:53.580Z,22.08
2018-08-06T07:30:49.596Z,22.23
2018-08-06T07:35:45.660Z,22.41
2018-08-06T07:40:41.975Z,22.51
2018-08-06T07:45:38.023Z,22.98
2018-08-06T07:50:35.010Z,23.34
2018-08-06T07:55:31.989Z,23.80
2018-08-06T08:00:30.483Z,24.99
2018-08-06T08:05:28.888Z,26.09
2018-08-06T08:10:27.185Z,27.48
2018-08-06T08:15:25.060Z,29.16
2018-08-06T08:20:22.585Z,30.19
2018-08-06T08:25:20.779Z,29.81
2018-08-06T08:30:17.342Z,29.60
2018-08-06T08:35:13.768Z,29.29
2018-08-06T08:40:10.066Z,29.45
2018-08-06T08:45:06.490Z,29.50
2018-08-06T08:50:02.083Z,29.35
2018-08-06T08:54:56.615Z,29.17
2018-08-06T08:59:52.051Z,28.79
2018-08-06T09:04:46.673Z,28.39
2018-08-06T09:09:41.441Z,28.02
2018-08-06T09:14:36.353Z,27.64
2018-08-06T09:19:32.777Z,27.90
2018-08-06T09:24:31.077Z,28.67
2018-08-06T09:29:29.076Z,29.49
2018-08-06T09:34:27.105Z,30.61
2018-08-06T09:39:24.969Z,29.61
2018-08-06T09:44:21.741Z,30.43
2018-08-06T09:49:18.722Z,30.77
2018-08-06T09:54:16.697Z,31.54
2018-08-06T09:59:13.360Z,31.56
2018-08-06T10:04:10.164Z,31.15
2018-08-06T10:09:06.476Z,31.62
2018-08-06T10:14:02.673Z,31.39
2018-08-06T10:18:57.518Z,31.34
2018-08-06T10:23:54.709Z,31.17
2018-08-06T10:28:51.508Z,31.18
2018-08-06T10:33:48.141Z,31.06
2018-08-06T10:38:44.672Z,31.34
2018-08-06T10:43:41.569Z,31.74
2018-08-06T10:48:37.902Z,30.55
2018-08-06T10:53:33.628Z,30.48
2018-08-06T10:58:29.964Z,31.40
2018-08-06T11:03:26.815Z,31.74
2018-08-06T11:08:23.642Z,31.33
2018-08-06T11:13:20.637Z,31.40
2018-08-06T11:18:16.964Z,32.07
2018-08-06T11:23:13.792Z,32.00
2018-08-06T11:28:10.592Z,32.08
2018-08-06T11:33:07.298Z,32.48
2018-08-06T11:38:04.199Z,32.49
2018-08-06T11:43:00.870Z,32.51
2018-08-06T11:47:57.437Z,33.02
2018-08-06T11:52:54.268Z,33.11
2018-08-06T11:57:50.806Z,32.45
2018-08-06T12:02:46.952Z,33.17
2018-08-06T12:07:43.627Z,33.83
2018-08-06T12:12:40.260Z,34.39
2018-08-06T12:17:37.793Z,34.20
2018-08-06T12:22:33.472Z,34.03
2018-08-06T12:27:29.223Z,33.52
2018-08-06T12:32:26.043Z,33.15
2018-08-06T12:37:21.689Z,33.11
2018-08-06T12:42:16.802Z,31.97
2018-08-06T12:47:11.871Z,32.36
2018-08-06T12:52:04.926Z,31.69
2018-08-06T12:56:59.104Z,31.66
2018-08-06T13:01:58.416Z,32.00
2018-08-06T13:06:55.016Z,32.51
2018-08-06T13:11:52.104Z,32.65
2018-08-06T13:16:47.860Z,32.67
2018-08-06T13:21:44.776Z,33.20
2018-08-06T13:26:41.562Z,33.30
2018-08-06T13:31:37.277Z,33.31
2018-08-06T13:36:33.071Z,33.17
2018-08-06T13:41:28.772Z,32.95
2018-08-06T13:46:24.620Z,32.87
2018-08-06T13:51:20.259Z,32.92
2018-08-06T13:56:16.640Z,32.85
2018-08-06T14:01:12.544Z,32.86
2018-08-06T14:06:07.883Z,33.12
2018-08-06T14:11:04.790Z,32.75
2018-08-06T14:16:00.267Z,32.23
2018-08-06T14:20:55.528Z,31.78
2018-08-06T14:25:51.029Z,31.59
2018-08-06T14:30:47.652Z,31.99
2018-08-06T14:35:43.389Z,31.44
2018-08-06T14:40:40.002Z,31.07
2018-08-06T14:45:36.436Z,30.85
2018-08-06T14:50:32.022Z,30.68
2018-08-06T14:55:27.915Z,30.48
2018-08-06T15:00:23.748Z,30.31
2018-08-06T15:05:19.952Z,30.53
2018-08-06T15:10:16.060Z,30.21
2018-08-06T15:15:13.180Z,30.39
2018-08-06T15:20:09.895Z,30.53
2018-08-06T15:25:05.516Z,30.30
2018-08-06T15:30:01.540Z,30.39
2018-08-06T15:34:58.670Z,30.57
2018-08-06T15:39:54.389Z,30.32
2018-08-06T15:44:50.435Z,30.35
2018-08-06T15:49:46.549Z,30.43
2018-08-06T15:54:43.288Z,30.46
2018-08-06T15:59:39.262Z,30.32
2018-08-06T16:04:36.564Z,30.44
2018-08-06T16:09:32.650Z,30.34
2018-08-06T16:14:29.774Z,30.66
2018-08-06T16:19:25.591Z,30.85
2018-08-06T16:24:21.743Z,30.87
2018-08-06T16:29:17.964Z,31.28
2018-08-06T16:34:14.126Z,31.37
2018-08-06T16:39:10.589Z,31.54
2018-08-06T16:44:06.687Z,31.70
2018-08-06T16:49:02.832Z,31.81
2018-08-06T16:53:58.913Z,31.71
2018-08-06T16:58:55.033Z,31.64
2018-08-06T17:03:52.124Z,31.59
2018-08-06T17:08:48.103Z,31.58
2018-08-06T17:13:43.990Z,31.49
2018-08-06T17:18:40.129Z,31.59
2018-08-06T17:23:36.365Z,31.61
2018-08-06T17:28:32.463Z,31.70
2018-08-06T17:33:28.674Z,31.52
2018-08-06T17:38:24.473Z,31.44
2018-08-06T17:43:20.475Z,31.24
2018-08-06T17:48:16.501Z,31.28
2018-08-06T17:53:13.526Z,31.31
2018-08-06T17:58:10.242Z,31.24
2018-08-06T18:03:06.057Z,31.12
2018-08-06T18:08:01.889Z,30.85
2018-08-06T18:12:57.624Z,30.51
2018-08-06T18:17:54.380Z,30.30
2018-08-06T18:22:50.212Z,30.03
2018-08-06T18:27:46.632Z,29.94
2018-08-06T18:32:42.400Z,29.73
2018-08-06T18:37:38.466Z,29.57
2018-08-06T18:42:35.483Z,29.81
2018-08-06T18:47:32.050Z,29.63
2018-08-06T18:52:28.757Z,29.51
2018-08-06T18:57:24.360Z,29.23
2018-08-06T19:02:20.347Z,29.17
2018-08-06T19:07:17.100Z,29.14
2018-08-06T19:12:13.694Z,28.91
2018-08-06T19:17:09.347Z,28.86
2018-08-06T19:22:06.823Z,28.70
2018-08-06T19:27:02.411Z,28.74
2018-08-06T19:31:58.263Z,28.51
2018-08-06T19:36:54.092Z,28.41
2018-08-06T19:41:51.066Z,28.27
2018-08-06T19:46:46.548Z,28.05
2018-08-06T19:51:42.803Z,27.96
2018-08-06T19:56:39.732Z,27.77
2018-08-06T20:01:35.341Z,27.55
2018-08-06T20:06:32.295Z,27.42
2018-08-06T20:11:28.010Z,27.36
2018-08-06T20:16:24.157Z,27.27
2018-08-06T20:21:21.482Z,27.27
2018-08-06T20:26:17.208Z,27.18
2018-08-06T20:31:12.999Z,27.12
2018-08-06T20:36:10.153Z,27.05
2018-08-06T20:41:05.723Z,26.90
2018-08-06T20:46:01.687Z,26.83
2018-08-06T20:50:58.536Z,26.77
2018-08-06T20:55:55.157Z,26.74
2018-08-06T21:00:51.100Z,26.58
2018-08-06T21:05:47.315Z,26.44
2018-08-06T21:10:44.245Z,26.29
2018-08-06T21:15:39.786Z,26.36
2018-08-06T21:20:35.730Z,26.33
2018-08-06T21:25:31.638Z,26.36
2018-08-06T21:30:28.165Z,26.34
2018-08-06T21:35:24.692Z,26.26
2018-08-06T21:40:20.702Z,26.15
2018-08-06T21:45:16.503Z,26.10
2018-08-06T21:50:12.665Z,26.05
2018-08-06T21:55:08.477Z,25.98
2018-08-06T22:00:05.817Z,25.66
2018-08-06T22:05:01.326Z,25.69
2018-08-06T22:09:57.060Z,25.53
2018-08-06T22:14:53.019Z,25.32
2018-08-06T22:19:49.074Z,25.28
2018-08-06T22:24:45.406Z,25.17
2018-08-06T22:29:41.459Z,25.10
2018-08-06T22:34:37.433Z,25.04
2018-08-06T22:39:33.418Z,24.88
2018-08-06T22:44:30.387Z,24.86
2018-08-06T22:49:26.429Z,25.04
2018-08-06T22:54:22.256Z,24.88
2018-08-06T22:59:19.405Z,24.77
2018-08-06T23:04:15.337Z,24.60
2018-08-06T23:09:11.204Z,24.47
2018-08-06T23:14:07.449Z,24.39
2018-08-06T23:19:03.620Z,24.21
2018-08-06T23:23:59.667Z,24.36
2018-08-06T23:28:55.609Z,24.45
2018-08-06T23:33:51.485Z,24.29
2018-08-06T23:38:47.492Z,24.26
2018-08-06T23:43:43.521Z,23.98
2018-08-06T23:48:40.794Z,24.03
2018-08-06T23:53:36.011Z,23.96
2018-08-06T23:58:33.353Z,23.81
